createdAt,value
2023-03-27T00:02:13.838Z,11.20
2023-03-27T00:04:41.250Z,11.27
2023-03-27T00:07:10.829Z,11.43
2023-03-27T00:09:39.164Z,11.10
2023-03-27T00:12:06.478Z,11.60
2023-03-27T00:14:36.357Z,11.30
2023-03-27T00:17:05.139Z,11.37
2023-03-27T00:19:34.192Z,11.77
2023-03-27T00:22:03.828Z,11.83
2023-03-27T00:24:30.997Z,12.63
2023-03-27T00:27:00.575Z,11.90
2023-03-27T00:29:28.305Z,12.77
2023-03-27T00:31:55.566Z,13.20
2023-03-27T00:34:22.803Z,14.23
2023-03-27T00:36:51.309Z,13.07
2023-03-27T00:39:19.262Z,13.23
2023-03-27T00:41:47.380Z,12.90
2023-03-27T00:44:27.460Z,13.20
2023-03-27T00:46:55.295Z,12.63
2023-03-27T00:49:24.785Z,12.37
2023-03-27T00:51:53.085Z,12.70
2023-03-27T00:54:25.684Z,12.03
2023-03-27T00:56:58.011Z,11.50
2023-03-27T00:59:27.716Z,11.53
2023-03-27T01:01:54.930Z,11.93
2023-03-27T01:04:22.268Z,11.40
2023-03-27T01:06:52.769Z,12.63
2023-03-27T01:09:21.182Z,11.60
2023-03-27T01:12:12.849Z,11.53
2023-03-27T01:14:51.661Z,11.83
2023-03-27T01:17:21.051Z,12.37
2023-03-27T01:19:56.668Z,11.83
2023-03-27T01:22:46.954Z,12.90
2023-03-27T01:25:31.660Z,12.80
2023-03-27T01:28:04.838Z,12.17
2023-03-27T01:30:46.529Z,13.60
2023-03-27T01:33:38.714Z,12.60
2023-03-27T01:36:32.706Z,13.03
2023-03-27T01:39:28.830Z,13.50
2023-03-27T01:41:56.092Z,13.37
2023-03-27T01:44:44.673Z,13.30
2023-03-27T01:47:15.592Z,13.60
2023-03-27T01:49:45.646Z,12.67
2023-03-27T01:52:21.075Z,15.23
2023-03-27T01:54:55.765Z,13.93
2023-03-27T01:57:25.377Z,13.73
2023-03-27T02:00:18.453Z,13.93
2023-03-27T02:03:01.649Z,13.53
2023-03-27T02:05:32.958Z,13.70
2023-03-27T02:08:19.664Z,13.73
2023-03-27T02:10:53.080Z,14.23
2023-03-27T02:13:23.744Z,13.83
2023-03-27T02:15:50.666Z,14.00
2023-03-27T02:18:39.625Z,13.97
2023-03-27T02:21:06.665Z,13.47
2023-03-27T02:23:38.154Z,14.17
2023-03-27T02:26:08.998Z,13.80
2023-03-27T02:28:41.090Z,14.37
2023-03-27T02:31:32.984Z,13.23
2023-03-27T02:34:23.348Z,14.10
2023-03-27T02:37:08.440Z,14.27
2023-03-27T02:40:16.633Z,13.57
2023-03-27T02:43:08.914Z,13.77
2023-03-27T02:45:43.648Z,13.60
2023-03-27T02:48:14.334Z,13.60
2023-03-27T02:50:56.582Z,13.23
2023-03-27T02:53:24.046Z,13.57
2023-03-27T02:55:55.903Z,14.23
2023-03-27T02:58:30.739Z,13.97
2023-03-27T03:00:58.545Z,13.63
2023-03-27T03:03:28.104Z,14.40
2023-03-27T03:05:55.544Z,13.77
2023-03-27T03:08:22.618Z,14.40
2023-03-27T03:10:49.448Z,14.93
2023-03-27T03:13:16.808Z,13.87
2023-03-27T03:15:45.985Z,13.63
2023-03-27T03:18:13.098Z,13.10
2023-03-27T03:20:42.861Z,13.57
2023-03-27T03:23:10.321Z,13.63
2023-03-27T03:25:37.522Z,13.20
2023-03-27T03:28:08.154Z,14.47
2023-03-27T03:30:37.528Z,13.23
2023-03-27T03:33:04.468Z,14.73
2023-03-27T03:35:31.719Z,13.67
2023-03-27T03:37:59.443Z,12.93
2023-03-27T03:40:26.385Z,14.27
2023-03-27T03:42:53.732Z,12.43
2023-03-27T03:45:20.797Z,11.93
2023-03-27T03:47:48.084Z,13.50
2023-03-27T03:50:16.231Z,13.57
2023-03-27T03:52:45.116Z,12.40
2023-03-27T03:55:12.363Z,12.93
2023-03-27T03:57:41.945Z,12.20
2023-03-27T04:00:09.165Z,12.50
2023-03-27T04:02:38.328Z,11.83
2023-03-27T04:05:08.949Z,11.30
2023-03-27T04:07:37.473Z,10.53
2023-03-27T04:10:07.808Z,10.57
2023-03-27T04:12:35.031Z,10.10
2023-03-27T04:15:02.225Z,10.23
2023-03-27T04:17:29.204Z,9.93
2023-03-27T04:19:57.420Z,9.77
2023-03-27T04:22:29.325Z,10.00
2023-03-27T04:24:57.337Z,10.37
2023-03-27T04:27:24.212Z,9.43
2023-03-27T04:29:51.420Z,9.00
2023-03-27T04:32:19.405Z,8.87
2023-03-27T04:34:47.041Z,8.67
2023-03-27T04:37:14.677Z,8.57
2023-03-27T04:39:46.353Z,8.20
2023-03-27T04:42:14.235Z,9.23
2023-03-27T04:44:41.672Z,7.67
2023-03-27T04:47:09.161Z,7.70
2023-03-27T04:49:38.660Z,7.63
2023-03-27T04:52:07.978Z,7.53
2023-03-27T04:54:35.328Z,7.37
2023-03-27T04:57:03.715Z,7.33
2023-03-27T04:59:32.017Z,6.83
2023-03-27T05:01:59.771Z,6.60
2023-03-27T05:04:29.098Z,6.70
2023-03-27T05:06:56.571Z,7.00
2023-03-27T05:09:23.800Z,6.60
2023-03-27T05:11:51.106Z,6.97
2023-03-27T05:14:18.660Z,6.67
2023-03-27T05:16:45.853Z,7.07
2023-03-27T05:19:13.254Z,7.40
2023-03-27T05:21:41.083Z,8.13
2023-03-27T05:24:09.553Z,8.40
2023-03-27T05:26:38.489Z,9.10
2023-03-27T05:29:06.177Z,10.20
2023-03-27T05:31:33.822Z,9.90
2023-03-27T05:34:00.818Z,10.23
2023-03-27T05:36:29.638Z,10.07
2023-03-27T05:38:58.667Z,9.90
2023-03-27T05:41:25.855Z,9.57
2023-03-27T05:43:55.214Z,10.47
2023-03-27T05:46:22.475Z,9.67
2023-03-27T05:48:49.361Z,10.17
2023-03-27T05:51:17.566Z,8.57
2023-03-27T05:53:44.836Z,8.70
2023-03-27T05:56:14.075Z,8.83
2023-03-27T05:58:40.896Z,9.33
2023-03-27T06:01:11.118Z,8.40
2023-03-27T06:03:38.808Z,8.67
2023-03-27T06:06:10.237Z,8.97
2023-03-27T06:08:37.088Z,9.30
2023-03-27T06:11:13.234Z,8.67
2023-03-27T06:13:40.544Z,8.63
2023-03-27T06:16:12.598Z,8.77
2023-03-27T06:18:39.407Z,8.97
2023-03-27T06:21:06.636Z,9.23
2023-03-27T06:23:35.605Z,9.57
2023-03-27T06:26:02.423Z,10.43
2023-03-27T06:28:29.840Z,11.17
2023-03-27T06:30:59.762Z,12.87
2023-03-27T06:33:30.195Z,13.53
2023-03-27T06:36:00.931Z,14.10
2023-03-27T06:38:31.586Z,14.63
2023-03-27T06:41:00.912Z,11.43
2023-03-27T06:43:28.084Z,10.43
2023-03-27T06:45:55.388Z,9.90
2023-03-27T06:48:23.946Z,9.80
2023-03-27T06:50:52.089Z,9.47
2023-03-27T06:53:27.909Z,9.10
2023-03-27T06:55:55.953Z,8.90
2023-03-27T06:58:23.111Z,8.50
2023-03-27T07:00:50.451Z,7.67
2023-03-27T07:03:18.119Z,7.30
2023-03-27T07:05:45.627Z,8.20
2023-03-27T07:10:45.049Z,7.93
2023-03-27T07:13:13.071Z,7.93
2023-03-27T07:15:39.905Z,7.70
2023-03-27T07:18:07.150Z,7.50
2023-03-27T07:20:36.854Z,7.13
2023-03-27T07:23:04.215Z,6.80
2023-03-27T07:25:37.991Z,6.67
2023-03-27T07:28:12.367Z,7.57
2023-03-27T07:30:39.755Z,6.87
2023-03-27T07:33:09.648Z,5.80
2023-03-27T07:35:46.890Z,5.87
2023-03-27T07:38:17.382Z,4.70
2023-03-27T07:40:46.296Z,4.63
2023-03-27T07:43:13.819Z,4.43
2023-03-27T07:45:41.289Z,4.30
2023-03-27T07:48:08.984Z,4.63
2023-03-27T07:50:39.120Z,4.37
2023-03-27T07:53:06.701Z,4.33
2023-03-27T07:55:38.057Z,4.37
2023-03-27T07:58:07.025Z,4.90
2023-03-27T08:00:36.002Z,4.50
2023-03-27T08:03:07.433Z,4.70
2023-03-27T08:05:35.038Z,5.00
2023-03-27T08:08:01.968Z,4.47
2023-03-27T08:10:28.771Z,4.20
2023-03-27T08:13:01.092Z,4.83
2023-03-27T08:15:27.925Z,3.77
2023-03-27T08:17:58.491Z,4.50
2023-03-27T08:20:25.689Z,4.30
2023-03-27T08:22:54.855Z,4.67
2023-03-27T08:25:27.900Z,4.93
2023-03-27T08:27:57.124Z,4.70
2023-03-27T08:30:26.436Z,4.33
2023-03-27T08:32:53.744Z,4.07
2023-03-27T08:35:20.685Z,4.30
2023-03-27T08:37:48.071Z,3.73
2023-03-27T08:40:26.265Z,3.50
2023-03-27T08:42:55.271Z,3.60
2023-03-27T08:45:27.948Z,3.10
2023-03-27T08:48:04.495Z,3.40
2023-03-27T08:50:46.946Z,3.00
2023-03-27T08:53:41.893Z,3.07
2023-03-27T08:56:16.312Z,3.53
2023-03-27T08:58:46.112Z,3.00
2023-03-27T09:01:34.105Z,3.50
2023-03-27T09:04:38.338Z,2.60
2023-03-27T09:07:36.139Z,2.80
2023-03-27T09:10:28.472Z,2.80
2023-03-27T09:12:56.821Z,2.70
2023-03-27T09:15:29.204Z,2.70
2023-03-27T09:18:01.983Z,2.90
2023-03-27T09:20:35.193Z,2.40
2023-03-27T09:23:05.700Z,2.80
2023-03-27T09:25:38.606Z,2.60
2023-03-27T09:28:15.065Z,2.97
2023-03-27T09:30:42.320Z,2.70
2023-03-27T09:33:10.355Z,2.50
2023-03-27T09:35:39.562Z,3.17
2023-03-27T09:38:23.594Z,3.00
2023-03-27T09:40:56.278Z,2.70
2023-03-27T09:43:28.149Z,2.30
2023-03-27T09:45:55.593Z,2.77
2023-03-27T09:48:38.628Z,2.63
2023-03-27T09:51:08.508Z,2.90
2023-03-27T09:53:36.101Z,2.87
2023-03-27T09:56:09.630Z,2.60
2023-03-27T09:58:46.335Z,2.40
2023-03-27T10:01:40.340Z,2.50
2023-03-27T10:04:15.439Z,2.57
2023-03-27T10:06:47.576Z,2.70
2023-03-27T10:09:22.673Z,2.37
2023-03-27T10:11:51.138Z,2.23
2023-03-27T10:14:19.475Z,2.50
2023-03-27T10:16:47.728Z,2.37
2023-03-27T10:19:30.508Z,2.33
2023-03-27T10:21:57.740Z,2.33
2023-03-27T10:24:44.922Z,2.47
2023-03-27T10:27:20.369Z,3.10
2023-03-27T10:29:47.143Z,1.93
2023-03-27T10:32:14.847Z,2.20
2023-03-27T10:34:51.878Z,2.17
2023-03-27T10:37:32.456Z,2.40
2023-03-27T10:40:07.503Z,2.30
2023-03-27T10:42:34.731Z,2.53
2023-03-27T10:45:01.992Z,2.60
2023-03-27T10:47:31.578Z,3.17
2023-03-27T10:50:25.043Z,2.67
2023-03-27T10:53:14.168Z,2.47
2023-03-27T10:55:55.776Z,2.20
2023-03-27T10:58:35.863Z,1.83
2023-03-27T11:01:08.848Z,2.23
2023-03-27T11:03:46.819Z,2.10
2023-03-27T11:06:15.508Z,2.07
2023-03-27T11:08:58.436Z,2.40
2023-03-27T11:11:28.299Z,2.83
2023-03-27T11:13:59.626Z,2.40
2023-03-27T11:16:27.540Z,2.20
2023-03-27T11:19:13.382Z,2.23
2023-03-27T11:21:47.603Z,2.60
2023-03-27T11:24:46.459Z,2.33
2023-03-27T11:27:34.265Z,2.30
2023-03-27T11:30:18.003Z,2.37
2023-03-27T11:32:58.796Z,2.20
2023-03-27T11:35:27.810Z,2.27
2023-03-27T11:37:59.727Z,2.37
2023-03-27T11:40:35.293Z,2.43
2023-03-27T11:43:04.581Z,2.20
2023-03-27T11:45:39.520Z,2.17
2023-03-27T11:48:10.968Z,2.90
2023-03-27T11:51:04.400Z,2.47
2023-03-27T11:53:50.033Z,2.00
2023-03-27T11:56:47.202Z,2.20
2023-03-27T11:59:14.397Z,2.17
2023-03-27T12:02:04.906Z,2.97
2023-03-27T12:04:43.566Z,2.47
2023-03-27T12:07:47.628Z,2.20
2023-03-27T12:10:15.977Z,1.97
2023-03-27T12:12:45.749Z,1.87
2023-03-27T12:15:47.378Z,2.13
2023-03-27T12:19:02.100Z,2.20
2023-03-27T12:21:47.963Z,2.37
2023-03-27T12:24:59.455Z,2.13
2023-03-27T12:27:32.742Z,2.67
2023-03-27T12:30:06.119Z,2.30
2023-03-27T12:33:05.090Z,2.13
2023-03-27T12:35:47.122Z,2.53
2023-03-27T12:38:18.445Z,1.97
2023-03-27T12:40:59.172Z,1.97
2023-03-27T12:43:26.776Z,2.30
2023-03-27T12:46:12.559Z,2.10
2023-03-27T12:48:51.862Z,1.70
2023-03-27T12:51:20.778Z,2.30
2023-03-27T12:53:49.986Z,2.20
2023-03-27T12:56:17.255Z,2.03
2023-03-27T12:58:51.557Z,2.03
2023-03-27T13:01:49.074Z,1.83
2023-03-27T13:04:43.355Z,2.63
2023-03-27T13:07:20.828Z,2.20
2023-03-27T13:09:53.024Z,3.70
2023-03-27T13:12:23.098Z,2.20
2023-03-27T13:14:50.303Z,1.63
2023-03-27T13:17:42.036Z,2.00
2023-03-27T13:20:23.022Z,1.67
2023-03-27T13:23:08.344Z,2.20
2023-03-27T13:25:47.534Z,1.77
2023-03-27T13:28:30.074Z,2.07
2023-03-27T13:31:01.209Z,1.90
2023-03-27T13:33:31.032Z,1.90
2023-03-27T13:35:58.110Z,1.67
2023-03-27T13:38:49.591Z,2.77
2023-03-27T13:41:37.920Z,2.00
2023-03-27T13:44:06.000Z,1.70
2023-03-27T13:46:35.551Z,2.07
2023-03-27T13:49:04.727Z,1.87
2023-03-27T13:51:50.295Z,2.10
2023-03-27T13:54:32.451Z,1.97
2023-03-27T13:57:05.552Z,2.20
2023-03-27T13:59:54.017Z,2.20
2023-03-27T14:02:38.646Z,2.30
2023-03-27T14:05:11.745Z,2.53
2023-03-27T14:08:35.971Z,2.90
2023-03-27T14:11:09.186Z,2.10
2023-03-27T14:14:00.835Z,1.83
2023-03-27T14:16:50.431Z,1.90
2023-03-27T14:19:32.966Z,2.10
2023-03-27T14:22:11.041Z,1.60
2023-03-27T14:24:50.893Z,1.60
2023-03-27T14:27:19.595Z,1.80
2023-03-27T14:29:49.525Z,2.13
2023-03-27T14:32:18.038Z,1.60
2023-03-27T14:34:53.304Z,1.87
2023-03-27T14:37:30.250Z,2.27
2023-03-27T14:39:58.289Z,1.83
2023-03-27T14:42:32.985Z,1.80
2023-03-27T14:45:10.982Z,1.93
2023-03-27T14:47:37.837Z,2.30
2023-03-27T14:50:06.265Z,1.73
2023-03-27T14:52:38.152Z,1.70
2023-03-27T14:55:07.619Z,1.37
2023-03-27T14:57:36.982Z,1.50
2023-03-27T15:00:06.906Z,1.47
2023-03-27T15:02:35.056Z,1.60
2023-03-27T15:05:12.234Z,1.60
2023-03-27T15:07:39.093Z,1.60
2023-03-27T15:10:05.915Z,1.40
2023-03-27T15:12:36.024Z,1.60
2023-03-27T15:15:03.725Z,1.40
2023-03-27T15:17:31.330Z,2.00
2023-03-27T15:20:14.545Z,1.80
2023-03-27T15:22:47.382Z,2.00
2023-03-27T15:25:17.832Z,1.40
2023-03-27T15:27:55.360Z,2.03
2023-03-27T15:30:35.882Z,1.27
2023-03-27T15:33:04.456Z,1.47
2023-03-27T15:35:42.358Z,1.50
2023-03-27T15:38:16.037Z,1.73
2023-03-27T15:40:46.835Z,1.50
2023-03-27T15:43:14.156Z,1.20
2023-03-27T15:45:43.735Z,1.40
2023-03-27T15:48:20.795Z,1.60
2023-03-27T15:51:00.987Z,1.43
2023-03-27T15:53:34.594Z,1.80
2023-03-27T15:56:21.883Z,1.50
2023-03-27T15:58:57.688Z,1.70
2023-03-27T16:01:38.131Z,1.80
2023-03-27T16:04:16.512Z,1.60
2023-03-27T16:06:48.365Z,1.87
2023-03-27T16:09:25.740Z,1.50
2023-03-27T16:11:57.813Z,1.80
2023-03-27T16:14:40.780Z,1.63
2023-03-27T16:17:20.834Z,1.97
2023-03-27T16:19:59.729Z,2.20
2023-03-27T16:22:32.670Z,2.20
2023-03-27T16:25:00.539Z,2.03
2023-03-27T16:27:35.913Z,2.00
2023-03-27T16:30:03.347Z,2.07
2023-03-27T16:32:32.882Z,2.17
2023-03-27T16:35:00.342Z,2.30
2023-03-27T16:37:27.669Z,2.07
2023-03-27T16:39:55.484Z,2.27
2023-03-27T16:42:25.880Z,2.17
2023-03-27T16:44:53.598Z,2.40
2023-03-27T16:47:20.613Z,2.53
2023-03-27T16:50:07.421Z,1.90
2023-03-27T16:52:37.058Z,2.20
2023-03-27T16:55:07.225Z,2.37
2023-03-27T16:57:34.993Z,2.40
2023-03-27T17:00:02.258Z,2.07
2023-03-27T17:02:30.687Z,1.90
2023-03-27T17:04:59.247Z,2.30
2023-03-27T17:07:27.509Z,1.70
2023-03-27T17:09:54.924Z,2.10
2023-03-27T17:12:23.956Z,1.90
2023-03-27T17:14:53.454Z,2.60
2023-03-27T17:17:20.615Z,2.00
2023-03-27T17:19:47.382Z,2.20
2023-03-27T17:22:14.571Z,1.60
2023-03-27T17:24:55.442Z,1.80
2023-03-27T17:27:25.846Z,1.90
2023-03-27T17:30:00.531Z,2.00
2023-03-27T17:32:27.827Z,2.20
2023-03-27T17:34:55.386Z,2.07
2023-03-27T17:37:25.953Z,2.00
2023-03-27T17:39:53.170Z,2.00
2023-03-27T17:42:19.961Z,2.47
2023-03-27T17:44:46.764Z,2.70
2023-03-27T17:47:13.887Z,2.43
2023-03-27T17:49:45.111Z,2.40
2023-03-27T17:52:13.397Z,2.80
2023-03-27T17:54:40.390Z,2.57
2023-03-27T17:57:07.426Z,2.40
2023-03-27T17:59:34.319Z,2.50
2023-03-27T18:02:03.656Z,2.77
2023-03-27T18:04:31.160Z,2.13
2023-03-27T18:06:58.320Z,2.80
2023-03-27T18:09:25.827Z,2.70
2023-03-27T18:11:54.828Z,2.67
2023-03-27T18:14:21.680Z,2.70
2023-03-27T18:16:50.868Z,2.77
2023-03-27T18:19:18.199Z,3.03
2023-03-27T18:21:45.448Z,2.93
2023-03-27T18:24:12.342Z,2.70
2023-03-27T18:26:39.551Z,1.97
2023-03-27T18:29:07.299Z,1.80
2023-03-27T18:31:34.117Z,1.50
2023-03-27T18:34:01.902Z,1.70
2023-03-27T18:36:28.704Z,1.80
2023-03-27T18:38:56.587Z,1.97
2023-03-27T18:41:23.380Z,1.90
2023-03-27T18:43:50.205Z,2.30
2023-03-27T18:46:19.369Z,2.00
2023-03-27T18:48:48.611Z,2.10
2023-03-27T18:51:18.486Z,2.07
2023-03-27T18:53:46.051Z,2.20
2023-03-27T18:56:16.796Z,2.40
2023-03-27T18:58:47.327Z,2.20
2023-03-27T19:01:16.804Z,2.03
2023-03-27T19:03:44.684Z,2.23
2023-03-27T19:06:12.303Z,2.10
2023-03-27T19:08:42.023Z,2.23
2023-03-27T19:11:09.692Z,2.80
2023-03-27T19:13:36.950Z,2.23
2023-03-27T19:16:15.265Z,2.40
2023-03-27T19:18:42.484Z,2.20
2023-03-27T19:21:09.641Z,2.20
2023-03-27T19:23:38.899Z,2.23
2023-03-27T19:26:13.715Z,1.83
2023-03-27T19:28:40.519Z,2.17
2023-03-27T19:31:10.622Z,2.50
2023-03-27T19:33:40.316Z,1.80
2023-03-27T19:36:12.338Z,2.40
2023-03-27T19:38:41.646Z,1.90
2023-03-27T19:41:11.154Z,1.80
2023-03-27T19:43:40.674Z,1.73
2023-03-27T19:46:16.261Z,1.90
2023-03-27T19:48:44.942Z,1.83
2023-03-27T19:51:12.162Z,2.07
2023-03-27T19:53:39.431Z,2.20
2023-03-27T19:56:08.700Z,2.07
2023-03-27T19:58:35.968Z,2.03
2023-03-27T20:01:04.649Z,2.20
2023-03-27T20:03:31.697Z,2.90
2023-03-27T20:06:06.560Z,2.17
2023-03-27T20:08:38.202Z,2.20
2023-03-27T20:11:07.160Z,2.43
2023-03-27T20:13:42.345Z,2.30
2023-03-27T20:16:18.872Z,2.10
2023-03-27T20:18:46.093Z,1.97
2023-03-27T20:21:15.889Z,2.37
2023-03-27T20:23:43.266Z,2.50
2023-03-27T20:26:10.059Z,2.30
2023-03-27T20:28:37.360Z,2.50
2023-03-27T20:31:04.883Z,2.23
2023-03-27T20:33:31.693Z,2.57
2023-03-27T20:35:58.717Z,2.53
2023-03-27T20:38:29.649Z,2.60
2023-03-27T20:40:57.112Z,2.27
2023-03-27T20:43:27.045Z,2.40
2023-03-27T20:45:59.114Z,2.43
2023-03-27T20:48:26.725Z,2.77
2023-03-27T20:50:55.433Z,2.57
2023-03-27T20:53:30.389Z,2.33
2023-03-27T20:56:02.841Z,2.90
2023-03-27T20:58:31.628Z,2.77
2023-03-27T21:00:58.492Z,2.63
2023-03-27T21:03:25.387Z,2.73
2023-03-27T21:05:54.396Z,2.50
2023-03-27T21:08:21.870Z,2.60
2023-03-27T21:10:54.980Z,2.63
2023-03-27T21:13:22.199Z,2.60
2023-03-27T21:15:49.064Z,2.60
2023-03-27T21:18:15.928Z,2.53
2023-03-27T21:20:43.051Z,2.70
2023-03-27T21:23:09.840Z,2.53
2023-03-27T21:25:36.666Z,2.60
2023-03-27T21:28:03.495Z,2.80
2023-03-27T21:30:47.129Z,2.40
2023-03-27T21:33:16.180Z,2.27
2023-03-27T21:35:47.486Z,2.37
2023-03-27T21:38:15.540Z,2.93
2023-03-27T21:40:42.902Z,2.80
2023-03-27T21:43:09.757Z,2.50
2023-03-27T21:45:37.276Z,3.07
2023-03-27T21:48:07.088Z,2.30
2023-03-27T21:50:34.332Z,3.63
2023-03-27T21:53:01.116Z,2.80
2023-03-27T21:55:28.295Z,3.23
2023-03-27T21:57:57.357Z,3.00
2023-03-27T22:00:26.645Z,3.07
2023-03-27T22:02:57.112Z,3.27
2023-03-27T22:05:24.392Z,3.10
2023-03-27T22:07:53.748Z,3.93
2023-03-27T22:10:22.738Z,3.50
2023-03-27T22:12:49.958Z,3.90
2023-03-27T22:15:21.161Z,3.60
2023-03-27T22:17:49.114Z,3.70
2023-03-27T22:20:19.022Z,3.27
2023-03-27T22:22:48.608Z,3.60
2023-03-27T22:25:15.841Z,3.20
2023-03-27T22:27:42.800Z,3.30
2023-03-27T22:30:12.424Z,3.10
2023-03-27T22:32:40.825Z,3.10
2023-03-27T22:35:10.120Z,2.90
2023-03-27T22:37:39.886Z,3.33
2023-03-27T22:40:07.389Z,2.80
2023-03-27T22:42:36.950Z,3.13
2023-03-27T22:45:05.296Z,2.70
2023-03-27T22:47:32.526Z,3.57
2023-03-27T22:50:00.150Z,2.90
2023-03-27T22:52:27.000Z,2.63
2023-03-27T22:54:54.162Z,2.70
2023-03-27T22:57:21.015Z,3.20
2023-03-27T22:59:47.891Z,3.40
2023-03-27T23:02:14.706Z,3.00
2023-03-27T23:04:41.919Z,3.27
2023-03-27T23:07:09.161Z,3.20
2023-03-27T23:09:36.077Z,3.50
2023-03-27T23:12:02.827Z,3.47
2023-03-27T23:14:29.595Z,3.93
2023-03-27T23:16:56.384Z,3.70
2023-03-27T23:19:23.204Z,3.67
2023-03-27T23:21:49.974Z,4.30
2023-03-27T23:24:17.140Z,3.90
2023-03-27T23:26:44.354Z,3.67
2023-03-27T23:29:11.126Z,4.13
2023-03-27T23:31:37.968Z,4.23
2023-03-27T23:34:04.760Z,4.07
2023-03-27T23:36:31.576Z,4.23
2023-03-27T23:38:58.416Z,3.80
2023-03-27T23:41:25.247Z,3.97
2023-03-27T23:43:54.155Z,4.13
2023-03-27T23:46:23.421Z,4.13
2023-03-27T23:48:50.422Z,4.43
2023-03-27T23:51:19.500Z,4.57
2023-03-27T23:53:46.313Z,4.00
2023-03-27T23:56:13.124Z,4.20
2023-03-27T23:58:40.408Z,4.33
